createdAt,value
2023-01-30T00:00:57.738Z,11.70
2023-01-30T00:03:59.580Z,11.07
2023-01-30T00:07:01.151Z,11.65
2023-01-30T00:10:03.469Z,12.13
2023-01-30T00:13:05.162Z,11.88
2023-01-30T00:16:09.532Z,10.90
2023-01-30T00:19:11.201Z,11.80
2023-01-30T00:22:12.804Z,11.80
2023-01-30T00:25:14.544Z,11.85
2023-01-30T00:28:16.348Z,12.38
2023-01-30T00:31:18.332Z,11.65
2023-01-30T00:34:20.036Z,12.20
2023-01-30T00:37:21.667Z,13.82
2023-01-30T00:40:25.811Z,13.75
2023-01-30T00:43:46.781Z,12.85
2023-01-30T00:47:07.123Z,12.15
2023-01-30T00:50:09.442Z,13.07
2023-01-30T00:53:16.232Z,12.30
2023-01-30T00:59:19.495Z,11.15
2023-01-30T01:02:21.160Z,10.32
2023-01-30T01:05:22.783Z,11.75
2023-01-30T01:08:24.525Z,11.88
2023-01-30T01:11:26.135Z,10.88
2023-01-30T01:14:29.278Z,11.43
2023-01-30T01:17:31.062Z,12.35
2023-01-30T01:20:32.814Z,11.23
2023-01-30T01:23:34.507Z,10.80
2023-01-30T01:26:36.220Z,10.27
2023-01-30T01:29:37.911Z,9.93
2023-01-30T01:32:39.463Z,10.55
2023-01-30T01:35:43.661Z,11.90
2023-01-30T01:38:45.268Z,11.70
2023-01-30T01:41:46.848Z,10.30
2023-01-30T01:45:13.216Z,12.80
2023-01-30T01:48:22.580Z,11.60
2023-01-30T01:51:33.622Z,11.45
2023-01-30T01:54:38.268Z,11.48
2023-01-30T01:57:45.807Z,11.93
2023-01-30T02:00:49.502Z,12.88
2023-01-30T02:03:56.824Z,12.20
2023-01-30T02:06:58.377Z,12.10
2023-01-30T02:10:01.262Z,12.57
2023-01-30T02:13:03.591Z,13.25
2023-01-30T02:16:07.286Z,12.82
2023-01-30T02:19:30.206Z,12.05
2023-01-30T02:22:56.888Z,13.02
2023-01-30T02:26:18.473Z,13.73
2023-01-30T02:29:26.355Z,13.02
2023-01-30T02:32:37.174Z,13.27
2023-01-30T02:35:55.776Z,14.05
2023-01-30T02:39:08.769Z,13.32
2023-01-30T02:42:28.972Z,13.15
2023-01-30T02:45:48.989Z,13.52
2023-01-30T02:49:06.708Z,14.23
2023-01-30T02:52:11.474Z,12.18
2023-01-30T02:55:25.236Z,15.25
2023-01-30T02:58:32.376Z,13.18
2023-01-30T03:01:36.835Z,14.45
2023-01-30T03:05:00.645Z,13.00
2023-01-30T03:08:38.022Z,14.73
2023-01-30T03:12:11.355Z,13.75
2023-01-30T03:15:23.923Z,14.57
2023-01-30T03:18:25.685Z,13.25
2023-01-30T03:21:27.380Z,13.02
2023-01-30T03:24:29.132Z,14.90
2023-01-30T03:27:31.453Z,13.88
2023-01-30T03:30:33.212Z,14.38
2023-01-30T03:33:42.395Z,15.48
2023-01-30T03:36:44.479Z,16.77
2023-01-30T03:39:46.152Z,17.50
2023-01-30T03:42:50.025Z,15.57
2023-01-30T03:45:52.042Z,14.68
2023-01-30T03:48:53.750Z,13.75
2023-01-30T03:51:56.560Z,14.00
2023-01-30T03:54:58.803Z,13.32
2023-01-30T03:58:00.450Z,13.40
2023-01-30T04:01:05.962Z,13.25
2023-01-30T04:04:07.699Z,12.68
2023-01-30T04:07:09.310Z,14.27
2023-01-30T04:10:15.368Z,15.45
2023-01-30T04:13:17.412Z,13.43
2023-01-30T04:16:21.975Z,13.95
2023-01-30T04:19:42.693Z,13.65
2023-01-30T04:22:44.910Z,14.32
2023-01-30T04:25:46.888Z,13.02
2023-01-30T04:28:51.659Z,14.05
2023-01-30T04:31:53.584Z,12.68
2023-01-30T04:34:59.018Z,13.23
2023-01-30T04:38:00.849Z,12.07
2023-01-30T04:41:03.006Z,13.30
2023-01-30T04:44:07.718Z,12.90
2023-01-30T04:47:32.116Z,13.35
2023-01-30T04:50:34.415Z,12.68
2023-01-30T04:53:36.153Z,13.20
2023-01-30T04:56:37.988Z,12.77
2023-01-30T04:59:40.753Z,11.52
2023-01-30T05:02:45.460Z,14.70
2023-01-30T05:05:48.218Z,12.20
2023-01-30T05:08:51.044Z,10.77
2023-01-30T05:11:52.641Z,13.18
2023-01-30T05:14:54.259Z,12.23
2023-01-30T05:17:56.045Z,11.20
2023-01-30T05:21:09.011Z,12.35
2023-01-30T05:24:10.583Z,13.18
2023-01-30T05:27:12.120Z,13.88
2023-01-30T05:30:13.839Z,12.05
2023-01-30T05:33:15.523Z,15.02
2023-01-30T05:36:19.025Z,14.52
2023-01-30T05:39:20.777Z,13.55
2023-01-30T05:42:22.435Z,14.23
2023-01-30T05:45:24.121Z,13.32
2023-01-30T05:48:28.688Z,11.57
2023-01-30T05:51:30.893Z,12.82
2023-01-30T05:54:32.587Z,12.05
2023-01-30T05:57:34.303Z,12.88
2023-01-30T06:00:36.097Z,11.35
2023-01-30T06:03:38.262Z,11.07
2023-01-30T06:06:39.932Z,11.57
2023-01-30T06:09:41.569Z,10.85
2023-01-30T06:12:43.214Z,12.13
2023-01-30T06:15:45.729Z,11.77
2023-01-30T06:18:47.595Z,11.38
2023-01-30T06:21:49.227Z,12.52
2023-01-30T06:24:50.807Z,9.85
2023-01-30T06:27:52.452Z,10.25
2023-01-30T06:30:54.417Z,11.48
2023-01-30T06:33:56.137Z,10.15
2023-01-30T06:36:57.712Z,10.05
2023-01-30T06:39:59.331Z,10.85
2023-01-30T06:43:00.968Z,11.90
2023-01-30T06:46:02.564Z,10.38
2023-01-30T06:49:04.272Z,11.07
2023-01-30T06:52:05.834Z,11.52
2023-01-30T06:55:08.644Z,10.95
2023-01-30T06:58:13.149Z,11.00
2023-01-30T07:01:14.873Z,10.43
2023-01-30T07:04:16.578Z,10.18
2023-01-30T07:07:18.235Z,9.63
2023-01-30T07:10:20.287Z,10.52
2023-01-30T07:13:21.957Z,10.48
2023-01-30T07:16:29.399Z,9.57
2023-01-30T07:19:31.099Z,10.23
2023-01-30T07:22:32.633Z,12.25
2023-01-30T07:25:34.334Z,10.70
2023-01-30T07:28:35.936Z,10.75
2023-01-30T07:31:37.599Z,11.68
2023-01-30T07:34:39.909Z,9.60
2023-01-30T07:37:41.613Z,10.57
2023-01-30T07:40:43.353Z,9.98
2023-01-30T07:43:45.019Z,9.13
2023-01-30T07:46:46.697Z,10.32
2023-01-30T07:49:48.399Z,10.13
2023-01-30T07:52:50.128Z,11.27
2023-01-30T07:55:51.864Z,12.32
2023-01-30T07:58:55.049Z,10.50
2023-01-30T08:01:58.626Z,10.43
2023-01-30T08:05:00.303Z,10.65
2023-01-30T08:08:03.416Z,10.25
2023-01-30T08:11:05.143Z,10.85
2023-01-30T08:14:06.769Z,10.77
2023-01-30T08:17:08.470Z,10.70
2023-01-30T08:20:16.959Z,9.68
2023-01-30T08:23:19.223Z,9.90
2023-01-30T08:26:21.100Z,8.95
2023-01-30T08:29:22.757Z,8.23
2023-01-30T08:32:24.481Z,7.75
2023-01-30T08:35:26.488Z,8.82
2023-01-30T08:38:28.094Z,8.18
2023-01-30T08:41:29.629Z,11.02
2023-01-30T08:44:31.272Z,9.13
2023-01-30T08:47:32.881Z,10.38
2023-01-30T08:50:34.715Z,10.63
2023-01-30T08:53:36.420Z,9.85
2023-01-30T08:56:38.070Z,9.77
2023-01-30T08:59:39.658Z,10.30
2023-01-30T09:02:41.346Z,11.90
2023-01-30T09:05:43.072Z,10.88
2023-01-30T09:08:44.724Z,9.50
2023-01-30T09:11:48.098Z,10.70
2023-01-30T09:14:49.764Z,9.30
2023-01-30T09:17:54.509Z,9.30
2023-01-30T09:21:05.949Z,10.30
2023-01-30T09:24:07.700Z,10.15
2023-01-30T09:27:09.396Z,10.88
2023-01-30T09:30:14.461Z,9.40
2023-01-30T09:33:20.299Z,10.43
2023-01-30T09:36:21.891Z,9.70
2023-01-30T09:39:23.845Z,9.77
2023-01-30T09:42:43.719Z,10.13
2023-01-30T09:45:48.554Z,8.85
2023-01-30T09:49:18.989Z,10.90
2023-01-30T09:52:34.261Z,9.13
2023-01-30T09:55:41.507Z,9.27
2023-01-30T09:58:51.504Z,9.98
2023-01-30T10:02:22.259Z,10.13
2023-01-30T10:05:47.239Z,9.32
2023-01-30T10:09:06.147Z,10.60
2023-01-30T10:12:25.765Z,11.07
2023-01-30T10:15:52.107Z,9.18
2023-01-30T10:19:08.882Z,8.75
2023-01-30T10:22:58.357Z,10.70
2023-01-30T10:26:13.228Z,10.75
2023-01-30T10:29:36.397Z,9.30
2023-01-30T10:32:46.223Z,9.95
2023-01-30T10:36:00.475Z,10.25
2023-01-30T10:39:20.971Z,10.52
2023-01-30T10:42:36.251Z,10.50
2023-01-30T10:46:04.456Z,11.60
2023-01-30T10:49:27.829Z,11.20
2023-01-30T10:52:38.246Z,10.93
2023-01-30T10:55:42.771Z,10.70
2023-01-30T10:58:56.914Z,12.30
2023-01-30T11:02:14.260Z,11.63
2023-01-30T11:05:21.155Z,11.45
2023-01-30T11:08:28.833Z,12.98
2023-01-30T11:11:39.372Z,12.80
2023-01-30T11:14:56.351Z,12.10
2023-01-30T11:18:40.378Z,9.80
2023-01-30T11:21:42.364Z,10.55
2023-01-30T11:24:45.557Z,12.07
2023-01-30T11:28:05.237Z,10.90
2023-01-30T11:31:40.835Z,11.63
2023-01-30T11:34:44.083Z,10.73
2023-01-30T11:37:45.939Z,11.20
2023-01-30T11:40:47.587Z,9.80
2023-01-30T11:43:49.266Z,11.45
2023-01-30T11:46:51.657Z,10.73
2023-01-30T11:50:05.352Z,9.50
2023-01-30T11:53:38.166Z,10.38
2023-01-30T11:56:47.534Z,11.00
2023-01-30T12:00:01.105Z,10.05
2023-01-30T12:03:06.334Z,10.63
2023-01-30T12:06:08.025Z,11.02
2023-01-30T12:09:33.383Z,10.10
2023-01-30T12:12:43.824Z,12.35
2023-01-30T12:15:48.445Z,11.70
2023-01-30T12:19:05.378Z,10.68
2023-01-30T12:22:09.858Z,10.00
2023-01-30T12:25:22.311Z,11.65
2023-01-30T12:28:38.756Z,10.13
2023-01-30T12:31:50.385Z,11.27
2023-01-30T12:34:52.009Z,11.18
2023-01-30T12:38:04.878Z,12.05
2023-01-30T12:45:06.507Z,13.98
2023-01-30T12:48:13.788Z,11.60
2023-01-30T12:51:41.081Z,11.38
2023-01-30T12:54:49.670Z,9.88
2023-01-30T12:57:57.163Z,9.77
2023-01-30T13:01:16.289Z,12.18
2023-01-30T13:04:51.217Z,11.85
2023-01-30T13:08:16.355Z,11.55
2023-01-30T13:11:40.972Z,12.55
2023-01-30T13:15:00.110Z,11.57
2023-01-30T13:18:17.361Z,10.60
2023-01-30T13:24:41.927Z,10.52
2023-01-30T13:27:56.752Z,12.80
2023-01-30T13:30:59.128Z,10.63
2023-01-30T13:34:11.774Z,11.17
2023-01-30T13:37:18.268Z,12.38
2023-01-30T13:40:40.137Z,10.98
2023-01-30T13:43:48.256Z,11.35
2023-01-30T13:46:52.551Z,13.05
2023-01-30T13:50:21.699Z,11.40
2023-01-30T13:53:43.599Z,11.65
2023-01-30T13:57:24.694Z,10.88
2023-01-30T14:00:35.040Z,11.02
2023-01-30T14:03:39.304Z,11.40
2023-01-30T14:06:41.466Z,12.27
2023-01-30T14:09:49.365Z,10.85
2023-01-30T14:12:53.699Z,13.07
2023-01-30T14:15:58.291Z,11.93
2023-01-30T14:18:59.930Z,10.55
2023-01-30T14:22:18.548Z,11.13
2023-01-30T14:25:24.539Z,13.23
2023-01-30T14:28:29.463Z,10.90
2023-01-30T14:31:49.405Z,10.93
2023-01-30T14:35:03.035Z,10.02
2023-01-30T14:38:06.750Z,11.07
2023-01-30T14:41:28.004Z,10.55
2023-01-30T14:44:59.415Z,10.27
2023-01-30T14:48:32.640Z,10.23
2023-01-30T14:51:43.805Z,10.25
2023-01-30T14:54:50.553Z,9.02
2023-01-30T15:01:00.336Z,10.40
2023-01-30T15:04:04.426Z,9.05
2023-01-30T15:07:12.028Z,9.65
2023-01-30T15:10:35.475Z,8.63
2023-01-30T15:13:55.867Z,12.32
2023-01-30T15:17:12.357Z,8.88
2023-01-30T15:20:17.866Z,10.40
2023-01-30T15:23:41.388Z,9.85
2023-01-30T15:27:28.783Z,8.80
2023-01-30T15:30:45.905Z,10.30
2023-01-30T15:33:49.871Z,9.73
2023-01-30T15:36:51.976Z,8.73
2023-01-30T15:40:20.267Z,9.18
2023-01-30T15:43:42.297Z,8.32
2023-01-30T15:46:48.935Z,9.70
2023-01-30T15:49:57.286Z,11.52
2023-01-30T15:52:59.111Z,9.27
2023-01-30T15:56:03.139Z,10.60
2023-01-30T15:59:04.875Z,8.88
2023-01-30T16:02:18.773Z,9.48
2023-01-30T16:05:25.338Z,9.48
2023-01-30T16:11:40.297Z,10.70
2023-01-30T16:14:41.918Z,10.40
2023-01-30T16:17:57.407Z,9.60
2023-01-30T16:21:05.907Z,10.07
2023-01-30T16:24:21.362Z,9.07
2023-01-30T16:27:30.165Z,9.50
2023-01-30T16:30:31.859Z,9.27
2023-01-30T16:33:37.536Z,10.10
2023-01-30T16:36:40.808Z,8.55
2023-01-30T16:39:42.810Z,9.18
2023-01-30T16:42:59.118Z,9.05
2023-01-30T16:46:39.521Z,10.37
2023-01-30T16:49:47.137Z,9.48
2023-01-30T16:52:53.900Z,11.25
2023-01-30T16:59:05.450Z,13.50
2023-01-30T17:02:07.285Z,24.83
2023-01-30T17:05:16.551Z,18.45
2023-01-30T17:08:45.958Z,25.23
2023-01-30T17:11:47.601Z,22.60
2023-01-30T17:14:49.363Z,16.33
2023-01-30T17:17:50.975Z,12.23
2023-01-30T17:20:52.597Z,15.85
2023-01-30T17:23:57.844Z,10.85
2023-01-30T17:27:02.571Z,13.50
2023-01-30T17:30:14.308Z,8.75
2023-01-30T17:33:15.983Z,10.00
2023-01-30T17:36:28.065Z,9.30
2023-01-30T17:39:29.721Z,8.63
2023-01-30T17:42:31.376Z,8.50
2023-01-30T17:45:33.316Z,8.07
2023-01-30T17:48:34.864Z,7.97
2023-01-30T17:51:36.412Z,8.80
2023-01-30T17:54:37.977Z,8.27
2023-01-30T17:57:43.153Z,8.90
2023-01-30T18:00:44.790Z,7.35
2023-01-30T18:03:46.550Z,7.82
2023-01-30T18:06:55.503Z,7.53
2023-01-30T18:09:57.122Z,9.05
2023-01-30T18:12:58.707Z,8.07
2023-01-30T18:16:00.301Z,7.78
2023-01-30T18:19:08.706Z,7.28
2023-01-30T18:22:10.256Z,7.18
2023-01-30T18:25:14.925Z,7.22
2023-01-30T18:28:16.653Z,8.10
2023-01-30T18:31:18.351Z,8.10
2023-01-30T18:34:19.986Z,8.18
2023-01-30T18:37:21.630Z,8.18
2023-01-30T18:40:23.517Z,8.23
2023-01-30T18:43:25.398Z,8.35
2023-01-30T18:46:28.336Z,9.18
2023-01-30T18:49:30.388Z,8.57
2023-01-30T18:52:32.072Z,7.40
2023-01-30T18:55:33.676Z,6.88
2023-01-30T18:58:35.686Z,7.15
2023-01-30T19:01:40.003Z,6.82
2023-01-30T19:04:41.786Z,7.57
2023-01-30T19:07:43.320Z,6.38
2023-01-30T19:10:45.010Z,6.10
2023-01-30T19:13:46.587Z,7.28
2023-01-30T19:16:48.726Z,7.97
2023-01-30T19:19:50.382Z,7.03
2023-01-30T19:22:54.714Z,7.25
2023-01-30T19:25:59.510Z,6.95
2023-01-30T19:29:01.193Z,9.30
2023-01-30T19:32:02.865Z,10.10
2023-01-30T19:35:05.465Z,9.48
2023-01-30T19:38:07.491Z,7.00
2023-01-30T19:41:13.882Z,9.75
2023-01-30T19:44:15.551Z,8.13
2023-01-30T19:47:17.735Z,6.93
2023-01-30T19:50:19.689Z,6.10
2023-01-30T19:53:21.407Z,6.22
2023-01-30T19:56:25.318Z,6.85
2023-01-30T19:59:26.935Z,6.65
2023-01-30T20:02:30.126Z,7.25
2023-01-30T20:05:32.672Z,6.55
2023-01-30T20:08:36.489Z,7.40
2023-01-30T20:11:40.824Z,6.75
2023-01-30T20:14:42.485Z,5.95
2023-01-30T20:17:44.123Z,6.65
2023-01-30T20:20:45.685Z,6.90
2023-01-30T20:23:48.661Z,6.72
2023-01-30T20:26:50.362Z,8.50
2023-01-30T20:29:51.982Z,6.97
2023-01-30T20:32:54.909Z,6.25
2023-01-30T20:36:01.784Z,7.25
2023-01-30T20:39:04.441Z,6.13
2023-01-30T20:42:06.347Z,6.78
2023-01-30T20:45:08.461Z,7.07
2023-01-30T20:48:10.066Z,5.75
2023-01-30T20:51:14.248Z,7.93
2023-01-30T20:54:16.946Z,6.03
2023-01-30T20:57:18.614Z,7.20
2023-01-30T21:00:20.533Z,6.88
2023-01-30T21:03:27.816Z,7.25
2023-01-30T21:06:37.117Z,9.73
2023-01-30T21:09:46.429Z,6.47
2023-01-30T21:12:47.964Z,5.93
2023-01-30T21:16:00.607Z,8.30
2023-01-30T21:19:06.379Z,6.97
2023-01-30T21:22:10.533Z,6.88
2023-01-30T21:25:12.110Z,6.75
2023-01-30T21:28:13.714Z,6.55
2023-01-30T21:31:21.545Z,6.00
2023-01-30T21:34:23.472Z,6.50
2023-01-30T21:37:43.568Z,6.97
2023-01-30T21:41:11.104Z,6.65
2023-01-30T21:44:14.178Z,6.68
2023-01-30T21:47:15.811Z,6.75
2023-01-30T21:50:17.753Z,6.10
2023-01-30T21:53:19.523Z,6.20
2023-01-30T21:56:22.327Z,5.45
2023-01-30T21:59:23.894Z,8.02
2023-01-30T22:02:25.586Z,5.70
2023-01-30T22:05:27.184Z,6.03
2023-01-30T22:08:29.019Z,5.55
2023-01-30T22:11:30.817Z,5.57
2023-01-30T22:14:35.223Z,6.57
2023-01-30T22:17:36.754Z,6.10
2023-01-30T22:20:38.609Z,6.50
2023-01-30T22:23:42.523Z,6.10
2023-01-30T22:26:44.139Z,5.88
2023-01-30T22:29:45.791Z,6.90
2023-01-30T22:32:47.329Z,6.28
2023-01-30T22:35:51.048Z,6.00
2023-01-30T22:38:53.028Z,6.15
2023-01-30T22:41:55.021Z,6.65
2023-01-30T22:44:56.669Z,6.43
2023-01-30T22:47:58.302Z,5.90
2023-01-30T22:51:14.036Z,6.13
2023-01-30T22:54:16.318Z,6.47
2023-01-30T22:57:17.912Z,6.25
2023-01-30T23:00:19.713Z,5.65
2023-01-30T23:03:21.337Z,5.28
2023-01-30T23:06:24.078Z,5.90
2023-01-30T23:09:25.700Z,8.35
2023-01-30T23:12:46.376Z,5.80
2023-01-30T23:15:48.198Z,6.90
2023-01-30T23:18:56.285Z,5.72
2023-01-30T23:21:57.928Z,5.68
2023-01-30T23:24:59.462Z,5.53
2023-01-30T23:28:01.061Z,6.30
2023-01-30T23:31:10.791Z,5.88
2023-01-30T23:34:15.508Z,5.90
2023-01-30T23:37:17.655Z,5.47
2023-01-30T23:40:20.408Z,6.00
2023-01-30T23:43:22.037Z,6.68
2023-01-30T23:46:28.936Z,5.85
2023-01-30T23:49:30.538Z,7.72
2023-01-30T23:52:32.067Z,6.72
2023-01-30T23:55:33.749Z,5.60
2023-01-30T23:58:36.455Z,5.95
